Ulan Bator, Mongolia
Current Conditions -  °F | °C
As of 4:30 PM on Thursday 29 Jan 2015 (Local Time) from ZMUB Reporting Station
Clear Clear  
Wind Chill: -10°   Ceiling: Unl
Heat Index:   Visibility: 5mi
Dew Point: -13°   Wind: 4mph
Humidity: 55%   Direction: 250°WSW
Pressure: 30.3"   Gusts: NA
Location:  47.92°N, 106.91°E
Report Text: ZMUB 290830Z 25002MPS 8000NW NSC M18/M25 Q1026 NOSIG RMK QFE661.2 47 NW MO
Loading
Personal Weather Stations






























Interactive Weather Map New forecast layout! Learn more

10-Day Weather Forecast

Advertisements
Track Severe Weather on mobile